Time;durP1;ratioP1;P1;durP2;ratioP2;P2;SDS_P1;SDS_P2;PMS_P1;PMS_P2;Temp;Humidity;BMP_temperature;BMP_pressure;BME280_temperature;BME280_humidity;BME280_pressure;Samples;Min_cycle;Max_cycle;Signal;HPM_P1;HPM_P2
2021/06/30 00:01:15;;;;;;;11.63;5.32;;;19.00;85.90;;;;;;5114104;28;20374;-76
2021/06/30 00:03:41;;;;;;;9.48;4.95;;;19.00;86.10;;;;;;5123939;27;20272;-76
2021/06/30 00:06:07;;;;;;;20.23;6.40;;;19.00;86.00;;;;;;5114240;28;20067;-76
2021/06/30 00:08:33;;;;;;;15.13;5.57;;;19.00;86.00;;;;;;5125936;27;20430;-76
2021/06/30 00:10:59;;;;;;;11.63;4.80;;;19.00;86.10;;;;;;5123252;27;20032;-75
2021/06/30 00:13:25;;;;;;;16.30;5.28;;;19.00;86.00;;;;;;5110969;27;20043;-75
2021/06/30 00:15:52;;;;;;;9.57;4.90;;;19.00;86.10;;;;;;5129552;27;20057;-76
2021/06/30 00:18:23;;;;;;;11.23;4.97;;;19.00;86.20;;;;;;5120537;27;20034;-75
2021/06/30 00:20:49;;;;;;;11.20;4.82;;;19.00;86.10;;;;;;5129238;27;20084;-76
2021/06/30 00:23:15;;;;;;;16.67;5.22;;;18.90;86.10;;;;;;5128443;27;20038;-76
2021/06/30 00:25:42;;;;;;;10.77;5.07;;;18.90;86.20;;;;;;5121865;27;20028;-75
2021/06/30 00:28:08;;;;;;;19.50;5.20;;;18.90;86.20;;;;;;5112199;28;20035;-80
2021/06/30 00:30:34;;;;;;;10.98;5.13;;;18.90;86.20;;;;;;5116421;27;20024;-75
2021/06/30 00:33:03;;;;;;;19.55;6.10;;;18.90;86.20;;;;;;5106962;27;20386;-76
2021/06/30 00:35:29;;;;;;;18.52;5.88;;;18.90;86.20;;;;;;5115515;27;20424;-75
2021/06/30 00:37:57;;;;;;;11.82;4.90;;;18.90;86.20;;;;;;5122540;27;20081;-76
2021/06/30 00:40:23;;;;;;;13.75;5.53;;;18.90;86.20;;;;;;5120682;27;20031;-76
2021/06/30 00:42:48;;;;;;;15.43;5.30;;;18.90;86.20;;;;;;5116557;27;20043;-76
2021/06/30 00:45:19;;;;;;;17.27;6.28;;;18.90;86.30;;;;;;5125575;27;20050;-76
2021/06/30 00:47:45;;;;;;;12.35;5.68;;;18.90;86.30;;;;;;5124313;27;20031;-76
2021/06/30 00:50:14;;;;;;;20.88;5.60;;;18.90;86.30;;;;;;5118103;27;20032;-76
2021/06/30 00:52:39;;;;;;;15.43;5.60;;;18.90;86.30;;;;;;5121918;27;20039;-76
2021/06/30 00:55:06;;;;;;;16.92;5.53;;;18.90;86.20;;;;;;5117366;27;20027;-76
2021/06/30 00:57:34;;;;;;;12.10;5.22;;;18.90;86.20;;;;;;5126992;27;20031;-76
2021/06/30 01:00:03;;;;;;;14.90;5.68;;;18.90;86.20;;;;;;5122676;27;20389;-76
2021/06/30 01:02:29;;;;;;;17.30;5.20;;;18.90;86.20;;;;;;5118222;27;20084;-76
2021/06/30 01:04:54;;;;;;;18.23;6.45;;;18.90;86.20;;;;;;5116401;27;20024;-75
2021/06/30 01:07:23;;;;;;;12.98;4.30;;;18.90;86.10;;;;;;5133217;27;20030;-75
2021/06/30 01:09:49;;;;;;;15.40;5.25;;;18.90;86.10;;;;;;5141033;27;20037;-76
2021/06/30 01:12:14;;;;;;;16.00;6.45;;;18.90;86.10;;;;;;5133434;27;20557;-75
2021/06/30 01:14:41;;;;;;;14.43;5.45;;;18.80;86.00;;;;;;5123200;27;20032;-76
2021/06/30 01:17:08;;;;;;;11.48;5.25;;;18.90;86.10;;;;;;5130029;27;20031;-76
2021/06/30 01:19:35;;;;;;;11.30;4.50;;;18.90;86.20;;;;;;5110292;27;20030;-76
2021/06/30 01:22:01;;;;;;;14.05;5.03;;;18.80;86.10;;;;;;5099345;28;20034;-75
2021/06/30 01:24:27;;;;;;;11.65;4.70;;;18.90;86.20;;;;;;5111670;28;20077;-75
2021/06/30 01:26:53;;;;;;;15.55;5.30;;;18.80;86.10;;;;;;5124764;27;20031;-76
2021/06/30 01:29:19;;;;;;;13.48;4.82;;;18.80;86.10;;;;;;5115573;27;20030;-75
2021/06/30 01:31:46;;;;;;;13.05;4.60;;;18.80;85.90;;;;;;5113647;28;20026;-76
2021/06/30 01:34:13;;;;;;;8.68;4.63;;;18.80;86.00;;;;;;5119648;27;20031;-75
2021/06/30 01:36:51;;;;;;;15.77;5.95;;;18.80;85.90;;;;;;5114733;27;20467;-75
2021/06/30 01:39:19;;;;;;;9.70;4.72;;;18.80;86.00;;;;;;5113470;28;20039;-75
2021/06/30 01:41:45;;;;;;;9.65;4.47;;;18.80;85.90;;;;;;5113269;27;20023;-75
2021/06/30 01:44:12;;;;;;;11.88;5.07;;;18.90;86.00;;;;;;5118886;27;20141;-76
2021/06/30 01:46:38;;;;;;;11.95;4.68;;;18.80;85.90;;;;;;5107500;27;20067;-76
2021/06/30 01:49:05;;;;;;;8.98;4.85;;;18.80;85.90;;;;;;5094649;28;20027;-75
2021/06/30 01:51:32;;;;;;;10.50;4.80;;;18.80;85.90;;;;;;5101321;28;20024;-75
2021/06/30 01:54:00;;;;;;;21.48;4.82;;;18.80;86.00;;;;;;5088740;28;20505;-75
2021/06/30 01:56:27;;;;;;;17.27;5.38;;;18.80;85.90;;;;;;5104318;28;20024;-76
2021/06/30 01:59:10;;;;;;;15.30;5.22;;;18.80;85.80;;;;;;5126704;27;20095;-75
2021/06/30 02:01:37;;;;;;;8.88;4.13;;;18.80;85.80;;;;;;5115240;28;20027;-76
2021/06/30 02:04:03;;;;;;;11.93;5.05;;;18.90;85.60;;;;;;5095214;27;20509;-75
2021/06/30 02:06:39;;;;;;;12.38;5.68;;;18.90;85.60;;;;;;5099173;28;20024;-76
2021/06/30 02:09:07;;;;;;;14.90;5.07;;;18.90;85.40;;;;;;5111714;28;20024;-76
2021/06/30 02:11:34;;;;;;;11.95;5.90;;;18.90;85.30;;;;;;5112647;28;20047;-75
2021/06/30 02:14:00;;;;;;;12.23;5.50;;;18.90;85.20;;;;;;5112086;27;20522;-75
2021/06/30 02:16:26;;;;;;;17.20;5.50;;;18.90;85.10;;;;;;5111866;28;20347;-75
2021/06/30 02:18:52;;;;;;;15.60;4.90;;;18.90;85.10;;;;;;5113110;27;20038;-75
2021/06/30 02:21:19;;;;;;;10.60;4.68;;;18.90;85.10;;;;;;5111750;28;20642;-76
2021/06/30 02:23:45;;;;;;;11.13;5.22;;;18.90;85.10;;;;;;5113278;28;20399;-76
2021/06/30 02:26:11;;;;;;;16.98;4.78;;;18.90;85.10;;;;;;5119866;27;20027;-75
2021/06/30 02:28:37;;;;;;;14.20;4.60;;;18.90;85.10;;;;;;5125831;27;20096;-76
2021/06/30 02:31:06;;;;;;;15.50;5.07;;;18.90;85.20;;;;;;5115465;27;20102;-77
2021/06/30 02:33:32;;;;;;;23.45;5.45;;;18.90;85.10;;;;;;5110112;28;20375;-75
2021/06/30 02:35:57;;;;;;;10.80;5.18;;;18.90;85.20;;;;;;5112345;28;20085;-76
2021/06/30 02:38:26;;;;;;;13.63;6.05;;;18.80;85.10;;;;;;5123343;27;20443;-77
2021/06/30 02:40:51;;;;;;;17.05;6.55;;;18.90;85.10;;;;;;5112029;28;20034;-75
2021/06/30 02:43:17;;;;;;;16.25;5.97;;;18.80;85.00;;;;;;5112661;28;20441;-76
2021/06/30 02:45:45;;;;;;;18.13;5.97;;;18.80;84.90;;;;;;5113167;27;20058;-76
2021/06/30 02:48:11;;;;;;;13.57;5.55;;;18.80;84.80;;;;;;5111753;28;20055;-75
2021/06/30 02:50:37;;;;;;;11.13;5.13;;;18.80;84.60;;;;;;5107573;28;20526;-79
2021/06/30 02:53:03;;;;;;;12.60;6.10;;;18.80;84.50;;;;;;5105476;28;20035;-80
2021/06/30 02:55:28;;;;;;;10.45;5.15;;;18.80;84.20;;;;;;5112185;28;20008;-80
2021/06/30 02:57:54;;;;;;;17.92;6.15;;;18.90;84.20;;;;;;5112674;28;20483;-79
2021/06/30 03:00:22;;;;;;;17.90;4.97;;;18.80;84.10;;;;;;5113116;28;20019;-79
2021/06/30 03:02:48;;;;;;;9.65;4.75;;;18.80;84.10;;;;;;5113268;28;20051;-80
2021/06/30 03:05:15;;;;;;;12.77;5.32;;;18.80;84.00;;;;;;5115497;28;20541;-80
2021/06/30 03:07:41;;;;;;;13.05;5.03;;;18.90;84.00;;;;;;5123897;28;20038;-80
2021/06/30 03:10:09;;;;;;;10.57;5.15;;;18.90;84.00;;;;;;5112867;28;20036;-80
2021/06/30 03:12:38;;;;;;;13.55;4.88;;;18.80;83.90;;;;;;5116865;28;20043;-80
2021/06/30 03:15:06;;;;;;;15.75;5.50;;;18.90;84.00;;;;;;5119783;28;20536;-80
2021/06/30 03:17:34;;;;;;;12.35;6.03;;;18.80;84.10;;;;;;5102684;28;20024;-80
2021/06/30 03:20:08;;;;;;;24.40;5.70;;;18.80;84.20;;;;;;5116639;28;20050;-80
2021/06/30 03:22:34;;;;;;;14.15;5.38;;;18.80;84.90;;;;;;5115977;28;20028;-80
2021/06/30 03:25:00;;;;;;;10.45;5.57;;;18.80;84.30;;;;;;5120160;27;20037;-80
2021/06/30 03:27:25;;;;;;;14.70;6.22;;;18.80;84.30;;;;;;5115330;27;20495;-79
2021/06/30 03:29:51;;;;;;;22.33;5.82;;;18.80;84.40;;;;;;5114932;27;20614;-79
2021/06/30 03:32:17;;;;;;;14.13;6.07;;;18.80;84.40;;;;;;5116327;28;20126;-80
2021/06/30 03:34:43;;;;;;;22.70;5.95;;;18.70;84.40;;;;;;5136355;27;20023;-80
2021/06/30 03:37:08;;;;;;;20.05;6.10;;;18.80;84.50;;;;;;5109086;28;20069;-80
2021/06/30 03:39:37;;;;;;;17.90;5.30;;;18.80;84.60;;;;;;5117830;28;20098;-79
2021/06/30 03:42:06;;;;;;;15.23;5.20;;;18.70;84.60;;;;;;5116548;28;20077;-79
2021/06/30 03:44:31;;;;;;;11.65;5.10;;;18.70;84.50;;;;;;5112096;28;20076;-79
2021/06/30 03:46:57;;;;;;;8.27;4.03;;;18.70;84.40;;;;;;5117228;28;20024;-80
2021/06/30 03:49:23;;;;;;;12.07;4.45;;;18.70;84.10;;;;;;5118325;28;20124;-80
2021/06/30 03:51:48;;;;;;;14.70;4.25;;;18.70;84.00;;;;;;5120668;27;20042;-80
2021/06/30 03:54:14;;;;;;;13.85;4.10;;;18.70;83.90;;;;;;5113967;28;20608;-79
2021/06/30 03:56:40;;;;;;;12.82;4.55;;;18.60;83.80;;;;;;5117174;28;20115;-79
2021/06/30 03:59:06;;;;;;;14.07;4.80;;;18.60;83.70;;;;;;5115832;28;20111;-79
2021/06/30 04:01:32;;;;;;;11.23;4.18;;;18.60;83.70;;;;;;5115605;28;20093;-79
2021/06/30 04:04:01;;;;;;;13.48;6.00;;;18.60;83.80;;;;;;5118508;27;20467;-79
2021/06/30 04:06:27;;;;;;;12.45;4.63;;;18.60;83.70;;;;;;5118618;27;20031;-79
2021/06/30 04:08:53;;;;;;;13.95;5.72;;;18.60;83.80;;;;;;5115242;28;20042;-79
2021/06/30 04:11:18;;;;;;;11.40;4.88;;;18.60;83.90;;;;;;5118500;27;20024;-80
2021/06/30 04:13:46;;;;;;;14.68;5.03;;;18.60;84.00;;;;;;5115097;28;20054;-80
2021/06/30 04:16:12;;;;;;;16.95;5.57;;;18.60;84.20;;;;;;5129248;28;20028;-80
2021/06/30 04:18:38;;;;;;;15.77;5.07;;;18.60;84.30;;;;;;5129640;28;20051;-79
2021/06/30 04:21:09;;;;;;;17.35;5.60;;;18.60;84.50;;;;;;5121542;28;20068;-79
2021/06/30 04:23:43;;;;;;;11.18;4.82;;;18.60;84.40;;;;;;5114351;27;20031;-80
2021/06/30 04:26:12;;;;;;;11.70;4.95;;;18.60;84.40;;;;;;5110662;28;20181;-80
2021/06/30 04:28:38;;;;;;;15.82;4.93;;;18.60;84.50;;;;;;5113002;28;20065;-80
2021/06/30 04:31:03;;;;;;;11.10;4.90;;;18.50;84.50;;;;;;5127883;27;20537;-80
2021/06/30 04:33:30;;;;;;;10.93;4.15;;;18.50;84.60;;;;;;5128155;27;20039;-80
2021/06/30 04:36:02;;;;;;;13.18;5.25;;;18.60;84.60;;;;;;5119124;27;20027;-80
2021/06/30 04:38:28;;;;;;;16.45;5.32;;;18.50;84.60;;;;;;5129764;27;20095;-80
2021/06/30 04:40:54;;;;;;;16.88;6.28;;;18.60;84.80;;;;;;5137308;27;20016;-80
2021/06/30 04:43:23;;;;;;;13.50;4.97;;;18.50;84.70;;;;;;5143106;27;20030;-80
2021/06/30 04:45:49;;;;;;;19.90;5.32;;;18.60;84.70;;;;;;5118257;27;20051;-79
2021/06/30 04:48:15;;;;;;;20.75;5.57;;;18.50;84.60;;;;;;5115696;28;20052;-79
2021/06/30 04:50:42;;;;;;;10.50;4.30;;;18.60;84.80;;;;;;5119158;27;20396;-79
2021/06/30 04:53:08;;;;;;;24.52;5.82;;;18.60;84.80;;;;;;5115098;28;20036;-79
2021/06/30 04:55:33;;;;;;;18.02;5.15;;;18.60;85.00;;;;;;5098108;28;20022;-79
2021/06/30 04:58:05;;;;;;;16.95;5.68;;;18.60;85.00;;;;;;5099368;28;20031;-79
2021/06/30 05:00:31;;;;;;;16.67;5.43;;;18.60;85.00;;;;;;5113753;27;20027;-79
2021/06/30 05:02:57;;;;;;;19.95;5.40;;;18.60;85.00;;;;;;5113868;28;20036;-79
2021/06/30 05:05:22;;;;;;;18.50;5.13;;;18.60;85.10;;;;;;5121024;27;20488;-80
2021/06/30 05:07:48;;;;;;;24.05;5.82;;;18.60;85.00;;;;;;5120283;27;20031;-79
2021/06/30 05:10:14;;;;;;;17.10;5.45;;;18.60;85.00;;;;;;5116262;27;20396;-80
2021/06/30 05:12:40;;;;;;;20.10;5.93;;;18.60;85.00;;;;;;5121391;27;20124;-79
2021/06/30 05:15:06;;;;;;;16.33;5.18;;;18.60;84.90;;;;;;5111075;28;20043;-79
2021/06/30 05:17:31;;;;;;;15.75;4.65;;;18.60;84.90;;;;;;5116427;27;20515;-80
2021/06/30 05:19:57;;;;;;;15.35;5.10;;;18.60;84.80;;;;;;5125266;27;20114;-81
2021/06/30 05:22:23;;;;;;;16.77;5.55;;;18.60;84.70;;;;;;5114157;27;20031;-79
2021/06/30 05:24:48;;;;;;;27.58;5.90;;;18.60;84.60;;;;;;5123502;27;20034;-82
2021/06/30 05:27:14;;;;;;;13.18;4.95;;;18.60;84.60;;;;;;5122591;27;20132;-74
2021/06/30 05:29:40;;;;;;;20.75;5.55;;;18.60;84.50;;;;;;5130100;27;20019;-70
2021/06/30 05:32:09;;;;;;;17.17;5.82;;;18.60;84.50;;;;;;5116793;27;20039;-71
2021/06/30 05:34:34;;;;;;;21.63;5.60;;;18.70;84.40;;;;;;5123268;27;20027;-70
2021/06/30 05:37:00;;;;;;;19.20;5.03;;;18.60;84.20;;;;;;5115461;27;20027;-70
2021/06/30 05:39:28;;;;;;;14.05;5.65;;;18.60;84.20;;;;;;5118480;27;20096;-70
2021/06/30 05:41:57;;;;;;;17.27;4.47;;;18.60;84.10;;;;;;5112522;28;20027;-71
2021/06/30 05:44:23;;;;;;;17.10;5.65;;;18.70;84.10;;;;;;5118351;27;20035;-71
2021/06/30 05:46:48;;;;;;;13.10;5.80;;;18.70;84.00;;;;;;5125669;27;20031;-71
2021/06/30 05:49:16;;;;;;;10.70;4.22;;;18.70;84.00;;;;;;5125925;27;20063;-71
2021/06/30 05:51:44;;;;;;;9.85;3.67;;;18.70;83.90;;;;;;5119737;27;20487;-71
2021/06/30 05:54:10;;;;;;;13.05;4.35;;;18.70;83.90;;;;;;5114380;27;20360;-70
2021/06/30 05:56:38;;;;;;;16.73;4.53;;;18.70;83.90;;;;;;5115125;27;20023;-72
2021/06/30 05:59:06;;;;;;;12.70;4.30;;;18.70;83.80;;;;;;5116708;27;20051;-71
2021/06/30 06:01:33;;;;;;;8.13;3.70;;;18.70;83.80;;;;;;5126544;27;20031;-71
2021/06/30 06:03:59;;;;;;;16.02;3.97;;;18.70;83.80;;;;;;5126728;27;20481;-71
2021/06/30 06:06:24;;;;;;;14.35;4.78;;;18.70;83.80;;;;;;5128278;27;20458;-71
2021/06/30 06:08:50;;;;;;;16.45;4.68;;;18.70;83.90;;;;;;5114585;28;20036;-71
2021/06/30 06:11:16;;;;;;;7.85;4.35;;;18.70;83.80;;;;;;5123562;27;20019;-71
2021/06/30 06:13:44;;;;;;;12.27;4.07;;;18.70;83.90;;;;;;5116020;27;20294;-72
2021/06/30 06:16:12;;;;;;;16.05;4.68;;;18.70;83.80;;;;;;5118664;27;20530;-69
2021/06/30 06:18:41;;;;;;;13.27;4.28;;;18.70;83.90;;;;;;5114256;27;20020;-71
2021/06/30 06:21:09;;;;;;;18.73;5.03;;;18.70;83.80;;;;;;5118684;27;20466;-69
2021/06/30 06:23:35;;;;;;;12.02;4.80;;;18.70;83.70;;;;;;5124204;27;20038;-70
2021/06/30 06:26:01;;;;;;;8.88;3.80;;;18.70;83.90;;;;;;5116608;27;20027;-70
2021/06/30 06:28:31;;;;;;;11.27;4.45;;;18.70;84.20;;;;;;5110356;28;20036;-70
2021/06/30 06:30:57;;;;;;;16.88;4.45;;;18.70;84.00;;;;;;5110656;28;20382;-70
2021/06/30 06:33:23;;;;;;;14.52;3.88;;;18.80;83.90;;;;;;5120288;27;20042;-70
2021/06/30 06:35:48;;;;;;;16.15;4.75;;;18.80;83.90;;;;;;5119970;27;20489;-71
2021/06/30 06:38:15;;;;;;;12.38;4.15;;;18.80;83.90;;;;;;5125616;27;20359;-70
2021/06/30 06:40:41;;;;;;;12.27;4.53;;;18.80;83.90;;;;;;5116676;27;20444;-69
2021/06/30 06:43:08;;;;;;;13.23;4.68;;;18.80;84.00;;;;;;5120685;27;20023;-70
2021/06/30 06:45:34;;;;;;;12.85;4.53;;;18.90;84.10;;;;;;5117691;27;20028;-72
2021/06/30 06:47:59;;;;;;;12.20;4.82;;;18.80;84.10;;;;;;5113052;28;20031;-72
2021/06/30 06:50:25;;;;;;;17.95;4.90;;;18.80;84.10;;;;;;5112444;27;20093;-72
2021/06/30 06:52:51;;;;;;;10.40;4.28;;;18.80;84.20;;;;;;5111090;28;20038;-72
2021/06/30 06:55:17;;;;;;;12.27;4.88;;;18.90;84.40;;;;;;5108321;28;20453;-72
2021/06/30 06:57:44;;;;;;;17.27;4.47;;;18.90;84.60;;;;;;5111242;27;20039;-72
2021/06/30 07:00:10;;;;;;;13.05;4.82;;;18.90;84.70;;;;;;5109443;28;20024;-72
2021/06/30 07:02:36;;;;;;;18.17;4.82;;;18.90;84.80;;;;;;5110596;28;20032;-72
2021/06/30 07:05:02;;;;;;;12.60;4.38;;;18.90;84.80;;;;;;5113490;28;20031;-72
2021/06/30 07:07:28;;;;;;;12.63;4.88;;;18.90;85.10;;;;;;5112628;28;20036;-72
2021/06/30 07:09:54;;;;;;;13.73;4.30;;;18.90;85.10;;;;;;5111802;28;20060;-72
2021/06/30 07:12:20;;;;;;;15.05;5.10;;;18.90;85.20;;;;;;5113175;28;20031;-72
2021/06/30 07:14:46;;;;;;;15.52;4.55;;;18.90;85.50;;;;;;5112968;28;20040;-72
2021/06/30 07:17:12;;;;;;;12.73;4.70;;;18.90;85.90;;;;;;5098759;28;20371;-73
2021/06/30 07:19:37;;;;;;;10.95;5.10;;;18.90;85.90;;;;;;5093064;28;20084;-72
2021/06/30 07:22:12;;;;;;;16.50;5.00;;;19.00;85.90;;;;;;5095737;28;20035;-73
2021/06/30 07:24:38;;;;;;;17.20;5.18;;;19.00;85.70;;;;;;5108275;28;20032;-72
2021/06/30 07:27:04;;;;;;;11.98;4.20;;;19.00;85.80;;;;;;5115797;28;20099;-72
2021/06/30 07:29:29;;;;;;;10.57;3.85;;;19.00;85.90;;;;;;5115140;28;20497;-72
2021/06/30 07:31:58;;;;;;;12.20;4.65;;;19.00;85.70;;;;;;5110379;28;20030;-72
2021/06/30 07:34:24;;;;;;;11.10;4.20;;;19.00;86.30;;;;;;5112436;28;20077;-72
2021/06/30 07:36:49;;;;;;;13.63;4.00;;;19.00;85.70;;;;;;5115723;28;20027;-72
2021/06/30 07:39:15;;;;;;;12.80;4.38;;;19.00;85.70;;;;;;5112038;28;20088;-72
2021/06/30 07:41:41;;;;;;;15.18;4.68;;;19.00;85.70;;;;;;5116516;28;20454;-72
2021/06/30 07:44:07;;;;;;;15.85;4.55;;;19.00;85.70;;;;;;5109076;28;20055;-72
2021/06/30 07:46:33;;;;;;;11.43;3.75;;;19.00;85.70;;;;;;5110066;28;20024;-72
2021/06/30 07:48:59;;;;;;;11.00;4.47;;;19.00;85.90;;;;;;5118077;28;20038;-72
2021/06/30 07:51:26;;;;;;;15.00;4.78;;;19.00;86.00;;;;;;5092785;28;20019;-73
2021/06/30 07:53:52;;;;;;;16.35;4.97;;;19.00;85.90;;;;;;5107988;28;20044;-72
2021/06/30 07:56:33;;;;;;;16.25;4.60;;;19.00;85.80;;;;;;5117349;27;20027;-72
2021/06/30 07:59:01;;;;;;;15.30;4.55;;;19.00;85.80;;;;;;5113430;28;20023;-72
2021/06/30 08:01:27;;;;;;;14.82;4.65;;;19.00;85.80;;;;;;5116542;28;20479;-72
2021/06/30 08:03:53;;;;;;;11.10;4.50;;;19.00;85.80;;;;;;5114379;28;20040;-72
2021/06/30 08:06:18;;;;;;;17.40;4.53;;;19.10;86.00;;;;;;5114189;28;20027;-72
2021/06/30 08:08:47;;;;;;;16.35;4.25;;;19.00;85.90;;;;;;5115957;28;20028;-72
2021/06/30 08:11:12;;;;;;;15.10;4.38;;;19.00;85.70;;;;;;5107596;28;20027;-72
2021/06/30 08:13:38;;;;;;;11.63;4.65;;;19.00;85.50;;;;;;5121137;27;20048;-72
2021/06/30 08:16:04;;;;;;;10.38;4.03;;;19.00;85.60;;;;;;5118157;27;20102;-72
2021/06/30 08:18:30;;;;;;;14.25;5.22;;;19.10;85.50;;;;;;5114669;27;20152;-72
2021/06/30 08:20:55;;;;;;;10.07;4.28;;;19.00;85.60;;;;;;5114054;28;20370;-72
2021/06/30 08:23:21;;;;;;;11.20;4.13;;;19.10;85.50;;;;;;5120917;27;20027;-72
2021/06/30 08:25:47;;;;;;;15.02;4.18;;;19.00;85.30;;;;;;5113626;28;20766;-72
2021/06/30 08:28:17;;;;;;;14.80;4.50;;;19.00;85.40;;;;;;5113923;28;20371;-72
2021/06/30 08:30:42;;;;;;;10.20;4.68;;;19.10;85.50;;;;;;5107577;27;20054;-72
2021/06/30 08:33:08;;;;;;;9.32;3.92;;;19.10;85.40;;;;;;5112656;28;20070;-72
2021/06/30 08:35:35;;;;;;;8.50;3.42;;;19.10;85.50;;;;;;5113108;28;20027;-72
2021/06/30 08:38:01;;;;;;;8.15;3.45;;;19.00;85.00;;;;;;5109719;28;20074;-72
2021/06/30 08:40:27;;;;;;;8.77;3.78;;;19.10;85.00;;;;;;5093422;28;20051;-72
2021/06/30 08:42:52;;;;;;;10.55;4.03;;;19.10;84.90;;;;;;5099728;28;20055;-72
2021/06/30 08:45:18;;;;;;;12.90;4.38;;;19.10;84.90;;;;;;5112326;28;20080;-72
2021/06/30 08:47:44;;;;;;;13.20;4.18;;;19.10;85.00;;;;;;5109610;27;20027;-72
2021/06/30 08:50:11;;;;;;;6.95;4.07;;;19.10;85.20;;;;;;5112709;28;20032;-72
2021/06/30 08:52:37;;;;;;;17.50;5.28;;;19.10;85.40;;;;;;5101853;28;20036;-72
2021/06/30 08:55:06;;;;;;;11.63;4.47;;;19.10;85.60;;;;;;5112857;27;20027;-72
2021/06/30 08:57:35;;;;;;;9.70;4.43;;;19.10;85.60;;;;;;5122000;27;20030;-72
2021/06/30 09:00:02;;;;;;;16.45;4.20;;;19.10;85.60;;;;;;5112035;28;20022;-72
2021/06/30 09:02:27;;;;;;;14.80;4.22;;;19.10;85.60;;;;;;5114538;28;20471;-72
2021/06/30 09:05:11;;;;;;;12.30;4.20;;;19.10;85.40;;;;;;5118261;27;20036;-72
2021/06/30 09:07:37;;;;;;;;;;;19.20;85.40;;;;;;5121896;27;20427;-72
2021/06/30 09:10:06;;;;;;;12.63;4.18;;;19.20;85.20;;;;;;5117240;27;19908;-72
2021/06/30 09:12:39;;;;;;;9.25;3.60;;;19.10;85.10;;;;;;5116314;27;20055;-72
2021/06/30 09:15:18;;;;;;;14.63;4.30;;;19.10;85.30;;;;;;5112428;28;20415;-72
2021/06/30 09:17:46;;;;;;;8.77;4.10;;;19.10;85.40;;;;;;5120258;27;20119;-72
2021/06/30 09:20:13;;;;;;;11.48;4.22;;;19.10;85.40;;;;;;5120236;27;20055;-72
2021/06/30 09:22:51;;;;;;;10.52;4.13;;;19.10;85.20;;;;;;5102445;27;20031;-68
2021/06/30 09:25:33;;;;;;;13.25;5.00;;;19.10;85.20;;;;;;5116187;27;20062;-68
2021/06/30 09:28:10;;;;;;;11.43;4.07;;;19.20;85.40;;;;;;5113954;28;20028;-67
2021/06/30 09:30:36;;;;;;;14.80;3.53;;;19.10;85.20;;;;;;5111115;28;20028;-70
2021/06/30 09:33:04;;;;;;;14.45;4.05;;;19.20;85.20;;;;;;5113271;28;20498;-70
2021/06/30 09:35:36;;;;;;;10.88;4.45;;;19.10;85.10;;;;;;5119295;27;20039;-70
2021/06/30 09:38:31;;;;;;;14.05;4.15;;;19.20;85.20;;;;;;5113646;28;20024;-70
2021/06/30 09:40:57;;;;;;;17.00;4.90;;;19.20;85.40;;;;;;5119607;27;20062;-70
2021/06/30 09:43:33;;;;;;;13.40;4.13;;;19.20;85.30;;;;;;5115219;27;20504;-70
2021/06/30 09:46:01;;;;;;;15.32;4.40;;;19.20;85.20;;;;;;5116858;27;20030;-69
2021/06/30 09:48:38;;;;;;;15.13;4.40;;;19.20;85.20;;;;;;5129148;27;20382;-70
2021/06/30 09:51:17;;;;;;;16.27;4.43;;;19.20;85.20;;;;;;5121730;27;20031;-70
2021/06/30 09:53:42;;;;;;;13.90;3.72;;;19.30;85.20;;;;;;5117346;27;20079;-69
2021/06/30 09:56:14;;;;;;;15.60;4.07;;;19.20;85.00;;;;;;5116669;27;20047;-68
2021/06/30 09:58:40;;;;;;;13.55;3.70;;;19.20;85.00;;;;;;5120425;27;20080;-68
2021/06/30 10:01:18;;;;;;;8.48;3.92;;;19.20;85.10;;;;;;5113580;28;20383;-69
2021/06/30 10:03:44;;;;;;;13.50;4.07;;;19.20;85.00;;;;;;5106680;27;20035;-70
2021/06/30 10:06:34;;;;;;;14.70;4.28;;;19.20;85.00;;;;;;5122713;27;20384;-68
2021/06/30 10:09:03;;;;;;;7.40;3.88;;;19.20;85.00;;;;;;5124797;27;20110;-67
2021/06/30 10:11:29;;;;;;;9.80;4.35;;;19.20;85.10;;;;;;5123771;27;20015;-68
2021/06/30 10:13:56;;;;;;;12.55;4.35;;;19.20;85.20;;;;;;5118027;27;20410;-71
2021/06/30 10:16:23;;;;;;;7.72;4.32;;;19.10;85.30;;;;;;5113335;28;20032;-71
2021/06/30 10:18:56;;;;;;;12.48;3.75;;;19.10;85.20;;;;;;5111666;27;20138;-71
2021/06/30 10:21:27;;;;;;;10.35;4.40;;;19.20;85.40;;;;;;5121264;27;20386;-71
2021/06/30 10:23:53;;;;;;;7.53;3.42;;;19.10;85.40;;;;;;5112810;27;20016;-71
2021/06/30 10:26:21;;;;;;;8.50;3.67;;;19.10;85.40;;;;;;5113116;27;20027;-69
2021/06/30 10:28:51;;;;;;;15.43;4.00;;;19.20;85.60;;;;;;5114995;27;20470;-68
2021/06/30 10:31:18;;;;;;;7.22;3.63;;;19.10;85.60;;;;;;5119794;27;20028;-72
2021/06/30 10:34:01;;;;;;;11.25;3.67;;;19.20;85.60;;;;;;5113313;27;20497;-73
2021/06/30 10:36:55;;;;;;;6.93;3.80;;;19.10;85.60;;;;;;5112510;27;20670;-73
2021/06/30 10:39:42;;;;;;;8.80;3.20;;;19.20;85.80;;;;;;5095141;28;20552;-73
2021/06/30 10:42:35;;;;;;;5.50;2.20;;;19.10;85.30;;;;;;5104760;28;20042;-73
2021/06/30 10:45:03;;;;;;;5.78;2.60;;;19.10;84.30;;;;;;5113770;27;20532;-73
2021/06/30 10:47:47;;;;;;;8.20;2.13;;;19.00;83.70;;;;;;5100052;28;20397;-73
2021/06/30 10:50:43;;;;;;;5.85;2.53;;;19.00;83.40;;;;;;5111876;27;20031;-72
2021/06/30 10:53:12;;;;;;;7.78;3.08;;;19.00;83.40;;;;;;5110786;27;20073;-73
2021/06/30 10:55:39;;;;;;;6.00;3.40;;;18.90;83.60;;;;;;5102770;28;20068;-73
2021/06/30 10:58:11;;;;;;;9.65;3.10;;;19.00;83.90;;;;;;5112575;28;20047;-73
2021/06/30 11:01:04;;;;;;;7.88;3.28;;;18.90;83.90;;;;;;5107377;28;20016;-72
2021/06/30 11:03:37;;;;;;;7.90;3.10;;;19.00;84.10;;;;;;5091153;28;20043;-72
2021/06/30 11:06:14;;;;;;;6.60;2.58;;;18.90;83.90;;;;;;5133545;28;20616;-73
2021/06/30 11:08:55;;;;;;;10.05;2.83;;;18.90;83.60;;;;;;5108365;28;20035;-73
2021/06/30 11:11:27;;;;;;;6.57;2.58;;;18.90;83.60;;;;;;5126080;28;20035;-73
2021/06/30 11:14:02;;;;;;;5.13;2.40;;;18.90;83.80;;;;;;5090534;28;20052;-73
2021/06/30 11:16:37;;;;;;;7.80;2.60;;;18.90;83.90;;;;;;5106951;28;20040;-73
2021/06/30 11:19:28;;;;;;;8.73;2.70;;;18.90;83.60;;;;;;5110195;28;20393;-75
2021/06/30 11:22:04;;;;;;;7.47;2.97;;;18.90;83.50;;;;;;5108001;28;20088;-74
2021/06/30 11:27:24;;;;;;;8.10;3.10;;;18.90;83.90;;;;;;5115422;28;20422;-73
2021/06/30 11:30:02;;;;;;;10.48;3.45;;;18.90;83.90;;;;;;5122167;27;20058;-75
2021/06/30 11:35:37;;;;;;;7.00;3.10;;;18.90;83.70;;;;;;5118967;27;20047;-68
2021/06/30 11:38:15;;;;;;;5.55;3.35;;;19.00;83.70;;;;;;5119908;27;20036;-69
2021/06/30 11:40:50;;;;;;;9.60;3.55;;;19.00;83.60;;;;;;5123844;27;20125;-69
2021/06/30 11:43:21;;;;;;;8.63;3.60;;;18.90;83.60;;;;;;5124682;27;20423;-76
2021/06/30 11:45:50;;;;;;;7.18;3.35;;;18.90;83.80;;;;;;5116730;27;20036;-68
2021/06/30 11:48:16;;;;;;;10.93;3.80;;;19.00;84.20;;;;;;5117159;27;20032;-73
2021/06/30 11:50:53;;;;;;;11.85;3.92;;;19.00;84.20;;;;;;5121533;27;21346;-72
2021/06/30 11:53:40;;;;;;;9.57;3.63;;;18.90;84.00;;;;;;5125045;27;20046;-73
2021/06/30 11:56:11;;;;;;;7.72;3.25;;;18.90;84.00;;;;;;5123474;27;20034;-74
2021/06/30 11:58:42;;;;;;;9.63;3.30;;;18.90;83.80;;;;;;5117546;27;20027;-68
2021/06/30 12:01:18;;;;;;;6.28;3.10;;;19.00;84.00;;;;;;5117636;27;20038;-67
2021/06/30 12:03:44;;;;;;;6.55;2.95;;;19.00;83.90;;;;;;5122859;27;20031;-67
2021/06/30 12:06:28;;;;;;;6.35;3.00;;;19.00;83.60;;;;;;5125866;27;20027;-73
2021/06/30 12:09:04;;;;;;;8.00;3.10;;;19.00;83.40;;;;;;5121715;27;20047;-77
2021/06/30 12:11:32;;;;;;;12.68;3.03;;;19.00;83.10;;;;;;5127741;27;20024;-74
2021/06/30 12:14:10;;;;;;;7.60;3.33;;;19.00;83.10;;;;;;5118406;27;20117;-74
2021/06/30 12:16:42;;;;;;;10.73;3.35;;;19.00;83.10;;;;;;5119794;27;20038;-73
2021/06/30 12:19:20;;;;;;;9.82;3.22;;;19.00;83.00;;;;;;5124879;27;20027;-72
2021/06/30 12:21:50;;;;;;;10.77;3.83;;;19.00;83.30;;;;;;5126033;27;20088;-75
2021/06/30 12:24:22;;;;;;;13.15;4.05;;;19.00;83.40;;;;;;5123161;27;20130;-70
2021/06/30 12:27:02;;;;;;;9.30;4.10;;;19.00;83.50;;;;;;5122055;27;20023;-70
2021/06/30 12:29:28;;;;;;;7.78;3.45;;;19.10;83.40;;;;;;5120689;27;20123;-70
2021/06/30 12:31:55;;;;;;;10.55;3.83;;;19.00;83.00;;;;;;5109209;27;20054;-70
2021/06/30 12:34:22;;;;;;;7.05;3.50;;;19.00;83.00;;;;;;5125241;27;20036;-70
2021/06/30 12:36:48;;;;;;;8.82;3.38;;;19.00;83.20;;;;;;5123175;27;20114;-70
2021/06/30 12:39:29;;;;;;;7.55;3.45;;;19.00;83.40;;;;;;5115298;27;20146;-70
2021/06/30 12:42:00;;;;;;;4.25;2.42;;;19.00;83.30;;;;;;5125806;27;20041;-70
2021/06/30 12:44:29;;;;;;;6.38;3.05;;;19.00;83.30;;;;;;5125993;27;20489;-77
2021/06/30 12:47:05;;;;;;;5.88;2.83;;;19.00;83.40;;;;;;5122050;27;20042;-77
2021/06/30 12:49:30;;;;;;;6.05;2.78;;;19.00;83.40;;;;;;5119855;27;20037;-77
2021/06/30 12:51:56;;;;;;;6.85;2.67;;;19.00;83.40;;;;;;5121883;27;20106;-77
2021/06/30 12:54:22;;;;;;;5.47;3.00;;;19.00;83.40;;;;;;5120834;27;20032;-76